createdAt,value
2018-08-27T00:03:04.177Z,16.35
2018-08-27T00:07:59.563Z,16.46
2018-08-27T00:12:56.451Z,16.49
2018-08-27T00:17:51.825Z,16.57
2018-08-27T00:22:47.791Z,16.69
2018-08-27T00:27:43.948Z,16.87
2018-08-27T00:32:40.164Z,16.91
2018-08-27T00:37:36.036Z,16.86
2018-08-27T00:42:32.921Z,16.74
2018-08-27T00:47:29.129Z,16.75
2018-08-27T00:52:25.141Z,16.65
2018-08-27T00:57:21.475Z,16.64
2018-08-27T01:02:17.355Z,16.65
2018-08-27T01:07:13.315Z,16.74
2018-08-27T01:12:09.105Z,16.78
2018-08-27T01:17:04.904Z,16.75
2018-08-27T01:22:01.615Z,16.75
2018-08-27T01:26:57.314Z,16.71
2018-08-27T01:31:54.306Z,16.78
2018-08-27T01:36:49.803Z,16.76
2018-08-27T01:41:45.959Z,16.89
2018-08-27T01:46:42.870Z,16.81
2018-08-27T01:51:38.244Z,16.78
2018-08-27T01:56:33.999Z,16.78
2018-08-27T02:01:30.281Z,16.81
2018-08-27T02:06:25.950Z,16.87
2018-08-27T02:11:22.101Z,16.86
2018-08-27T02:16:17.925Z,16.84
2018-08-27T02:21:13.830Z,16.83
2018-08-27T02:26:09.775Z,16.91
2018-08-27T02:31:06.076Z,16.86
2018-08-27T02:36:01.728Z,16.87
2018-08-27T02:40:57.528Z,16.78
2018-08-27T02:45:53.587Z,16.76
2018-08-27T02:50:49.315Z,16.79
2018-08-27T02:55:45.361Z,16.56
2018-08-27T03:00:41.563Z,16.33
2018-08-27T03:05:37.249Z,15.98
2018-08-27T03:10:33.259Z,15.62
2018-08-27T03:15:29.663Z,15.40
2018-08-27T03:20:25.380Z,15.39
2018-08-27T03:25:21.038Z,15.36
2018-08-27T03:30:16.889Z,15.40
2018-08-27T03:35:13.926Z,15.49
2018-08-27T03:40:09.376Z,15.52
2018-08-27T03:45:05.261Z,15.57
2018-08-27T03:50:02.395Z,15.76
2018-08-27T03:54:57.812Z,15.65
2018-08-27T03:59:53.771Z,15.55
2018-08-27T04:04:49.793Z,15.59
2018-08-27T04:09:47.023Z,15.64
2018-08-27T04:14:43.448Z,15.59
2018-08-27T04:19:39.943Z,15.58
2018-08-27T04:24:36.031Z,15.61
2018-08-27T04:29:31.529Z,15.75
2018-08-27T04:34:27.899Z,15.59
2018-08-27T04:39:24.453Z,15.51
2018-08-27T04:44:20.312Z,15.24
2018-08-27T04:49:17.005Z,15.04
2018-08-27T04:54:12.651Z,14.88
2018-08-27T04:59:08.396Z,14.88
2018-08-27T05:04:04.118Z,14.81
2018-08-27T05:08:59.954Z,14.82
2018-08-27T05:13:55.428Z,14.77
2018-08-27T05:18:51.705Z,14.82
2018-08-27T05:23:47.389Z,14.72
2018-08-27T05:28:43.270Z,14.69
2018-08-27T05:33:39.842Z,14.73
2018-08-27T05:38:36.826Z,14.59
2018-08-27T05:43:32.239Z,14.55
2018-08-27T05:48:28.164Z,14.53
2018-08-27T05:53:23.929Z,14.51
2018-08-27T05:58:19.970Z,14.50
2018-08-27T06:03:16.733Z,14.50
2018-08-27T06:08:12.290Z,14.54
2018-08-27T06:13:08.376Z,14.48
2018-08-27T06:18:04.101Z,14.53
2018-08-27T06:23:00.338Z,14.66
2018-08-27T06:27:56.159Z,14.54
2018-08-27T06:32:51.962Z,14.68
2018-08-27T06:37:48.541Z,14.66
2018-08-27T06:42:45.346Z,14.70
2018-08-27T06:47:40.678Z,14.65
2018-08-27T06:52:36.794Z,14.77
2018-08-27T06:57:33.776Z,14.85
2018-08-27T07:02:29.125Z,14.89
2018-08-27T07:07:24.935Z,15.00
2018-08-27T07:12:21.825Z,14.97
2018-08-27T07:17:18.306Z,15.09
2018-08-27T07:22:14.170Z,15.06
2018-08-27T07:27:10.052Z,15.28
2018-08-27T07:32:06.612Z,15.24
2018-08-27T07:37:03.648Z,15.37
2018-08-27T07:41:59.265Z,15.35
2018-08-27T07:46:55.124Z,15.47
2018-08-27T07:51:51.097Z,15.65
2018-08-27T07:56:48.073Z,15.76
2018-08-27T08:01:44.660Z,15.79
2018-08-27T08:06:41.252Z,15.84
2018-08-27T08:11:37.283Z,16.02
2018-08-27T08:16:33.479Z,16.16
2018-08-27T08:21:29.179Z,16.31
2018-08-27T08:26:25.152Z,16.35
2018-08-27T08:31:20.950Z,16.47
2018-08-27T08:36:17.663Z,16.57
2018-08-27T08:41:13.750Z,16.61
2018-08-27T08:46:10.614Z,16.76
2018-08-27T08:51:06.712Z,16.93
2018-08-27T08:56:02.238Z,17.04
2018-08-27T09:00:59.449Z,17.15
2018-08-27T09:05:55.080Z,17.04
2018-08-27T09:10:51.041Z,17.19
2018-08-27T09:15:47.474Z,17.26
2018-08-27T09:20:43.326Z,17.31
2018-08-27T09:25:40.430Z,17.44
2018-08-27T09:30:36.226Z,17.42
2018-08-27T09:35:32.355Z,17.51
2018-08-27T09:40:28.265Z,17.63
2018-08-27T09:45:24.136Z,17.65
2018-08-27T09:50:21.198Z,17.65
2018-08-27T09:55:16.992Z,17.59
2018-08-27T10:00:14.076Z,17.63
2018-08-27T10:05:11.385Z,17.71
2018-08-27T10:10:07.208Z,17.78
2018-08-27T10:15:03.365Z,17.92
2018-08-27T10:19:59.274Z,18.07
2018-08-27T10:24:56.658Z,18.22
2018-08-27T10:29:52.436Z,18.34
2018-08-27T10:34:48.419Z,18.50
2018-08-27T10:39:44.391Z,18.43
2018-08-27T10:44:40.188Z,18.63
2018-08-27T10:49:36.232Z,18.74
2018-08-27T10:54:32.312Z,18.89
2018-08-27T10:59:28.441Z,19.11
2018-08-27T11:04:24.643Z,19.16
2018-08-27T11:09:20.742Z,19.30
2018-08-27T11:14:16.489Z,19.31
2018-08-27T11:19:13.512Z,19.36
2018-08-27T11:24:09.788Z,19.64
2018-08-27T11:29:06.136Z,19.88
2018-08-27T11:34:04.500Z,20.32
2018-08-27T11:39:02.038Z,20.63
2018-08-27T11:43:57.311Z,20.52
2018-08-27T11:48:53.791Z,20.31
2018-08-27T11:53:48.693Z,20.24
2018-08-27T11:58:44.138Z,20.03
2018-08-27T12:03:39.528Z,19.85
2018-08-27T12:08:35.404Z,19.96
2018-08-27T12:13:31.730Z,20.19
2018-08-27T12:18:29.276Z,20.32
2018-08-27T12:23:25.317Z,20.96
2018-08-27T12:28:22.359Z,21.39
2018-08-27T12:33:18.676Z,21.69
2018-08-27T12:38:15.627Z,21.92
2018-08-27T12:43:11.792Z,22.10
2018-08-27T12:48:08.677Z,22.11
2018-08-27T12:53:04.734Z,22.15
2018-08-27T12:58:01.661Z,22.08
2018-08-27T13:02:58.444Z,22.15
2018-08-27T13:07:53.981Z,21.98
2018-08-27T13:12:49.443Z,21.72
2018-08-27T13:17:44.903Z,21.48
2018-08-27T13:22:43.022Z,21.67
2018-08-27T13:27:39.037Z,21.79
2018-08-27T13:32:35.139Z,21.82
2018-08-27T13:37:31.944Z,21.64
2018-08-27T13:42:27.397Z,21.62
2018-08-27T13:47:23.578Z,21.43
2018-08-27T13:52:20.909Z,21.54
2018-08-27T13:57:16.671Z,21.72
2018-08-27T14:02:13.143Z,21.57
2018-08-27T14:07:09.143Z,21.43
2018-08-27T14:12:04.941Z,21.29
2018-08-27T14:17:00.894Z,21.55
2018-08-27T14:21:58.280Z,21.69
2018-08-27T14:26:53.768Z,21.60
2018-08-27T14:31:49.751Z,21.43
2018-08-27T14:36:45.919Z,21.29
2018-08-27T14:41:42.771Z,21.18
2018-08-27T14:46:38.732Z,21.18
2018-08-27T14:51:34.582Z,21.15
2018-08-27T14:56:30.380Z,21.21
2018-08-27T15:01:26.323Z,21.32
2018-08-27T15:06:22.260Z,21.36
2018-08-27T15:11:18.167Z,21.36
2018-08-27T15:16:14.102Z,21.39
2018-08-27T15:21:09.919Z,21.42
2018-08-27T15:26:05.790Z,21.39
2018-08-27T15:31:03.045Z,20.99
2018-08-27T15:35:58.620Z,20.87
2018-08-27T15:40:55.242Z,20.87
2018-08-27T15:45:50.948Z,20.84
2018-08-27T15:50:46.686Z,20.85
2018-08-27T15:55:42.848Z,20.87
2018-08-27T16:00:38.753Z,20.75
2018-08-27T16:05:35.510Z,20.63
2018-08-27T16:10:30.696Z,20.50
2018-08-27T16:15:27.024Z,20.47
2018-08-27T16:20:22.718Z,20.51
2018-08-27T16:25:19.730Z,20.37
2018-08-27T16:30:16.474Z,20.28
2018-08-27T16:35:12.387Z,20.13
2018-08-27T16:40:07.841Z,20.18
2018-08-27T16:45:04.005Z,20.19
2018-08-27T16:49:59.852Z,20.06
2018-08-27T16:54:55.680Z,19.91
2018-08-27T16:59:52.504Z,19.77
2018-08-27T17:04:48.004Z,19.70
2018-08-27T17:09:45.168Z,19.62
2018-08-27T17:14:41.624Z,19.66
2018-08-27T17:19:38.337Z,19.54
2018-08-27T17:24:34.810Z,19.54
2018-08-27T17:29:30.222Z,19.37
2018-08-27T17:34:25.830Z,19.29
2018-08-27T17:39:21.483Z,19.18
2018-08-27T17:44:16.792Z,19.12
2018-08-27T17:49:12.467Z,19.02
2018-08-27T17:54:08.317Z,18.99
2018-08-27T17:59:04.227Z,18.98
2018-08-27T18:04:00.911Z,18.92
2018-08-27T18:08:56.462Z,18.90
2018-08-27T18:13:52.259Z,18.80
2018-08-27T18:18:48.410Z,18.68
2018-08-27T18:23:44.068Z,18.68
2018-08-27T18:28:40.117Z,18.70
2018-08-27T18:33:36.314Z,18.63
2018-08-27T18:38:32.109Z,18.62
2018-08-27T18:43:27.870Z,18.45
2018-08-27T18:48:23.733Z,18.49
2018-08-27T18:53:19.703Z,18.38
2018-08-27T18:58:16.646Z,18.52
2018-08-27T19:03:12.966Z,18.38
2018-08-27T19:08:08.992Z,18.37
2018-08-27T19:13:04.900Z,18.41
2018-08-27T19:18:01.088Z,18.23
2018-08-27T19:22:57.054Z,18.18
2018-08-27T19:27:52.896Z,18.26
2018-08-27T19:32:49.435Z,18.19
2018-08-27T19:37:45.791Z,18.15
2018-08-27T19:42:41.428Z,18.08
2018-08-27T19:47:37.531Z,18.11
2018-08-27T19:52:33.275Z,18.03
2018-08-27T19:57:29.189Z,18.04
2018-08-27T20:02:25.040Z,18.04
2018-08-27T20:07:21.708Z,17.94
2018-08-27T20:12:18.611Z,17.94
2018-08-27T20:17:14.243Z,17.95
2018-08-27T20:22:10.294Z,17.92
2018-08-27T20:27:06.175Z,17.90
2018-08-27T20:32:01.721Z,17.83
2018-08-27T20:36:57.958Z,17.78
2018-08-27T20:41:53.623Z,17.85
2018-08-27T20:46:49.527Z,17.83
2018-08-27T20:51:45.377Z,17.89
2018-08-27T20:56:41.331Z,17.89
2018-08-27T21:01:37.320Z,17.76
2018-08-27T21:06:33.880Z,17.85
2018-08-27T21:11:30.359Z,17.71
2018-08-27T21:16:25.589Z,17.74
2018-08-27T21:21:21.262Z,17.74
2018-08-27T21:26:17.169Z,17.68
2018-08-27T21:31:13.098Z,17.72
2018-08-27T21:36:08.691Z,17.78
2018-08-27T21:41:05.103Z,17.68
2018-08-27T21:46:01.189Z,17.72
2018-08-27T21:50:57.172Z,17.65
2018-08-27T21:55:52.905Z,17.54
2018-08-27T22:00:48.449Z,17.60
2018-08-27T22:05:44.527Z,17.67
2018-08-27T22:10:40.174Z,17.63
2018-08-27T22:15:37.371Z,17.56
2018-08-27T22:20:33.024Z,17.60
2018-08-27T22:25:28.737Z,17.59
2018-08-27T22:30:25.594Z,17.59
2018-08-27T22:35:21.132Z,17.59
2018-08-27T22:40:17.936Z,17.54
2018-08-27T22:45:13.460Z,17.38
2018-08-27T22:50:08.965Z,17.54
2018-08-27T22:55:05.694Z,17.51
2018-08-27T23:00:02.254Z,17.44
2018-08-27T23:04:57.259Z,17.49
2018-08-27T23:09:53.821Z,17.44
2018-08-27T23:14:49.590Z,17.44
2018-08-27T23:19:46.359Z,17.41
2018-08-27T23:24:41.899Z,17.42
2018-08-27T23:29:37.989Z,17.41
2018-08-27T23:34:34.008Z,17.30
2018-08-27T23:39:30.085Z,17.30
2018-08-27T23:44:25.738Z,17.39
2018-08-27T23:49:22.646Z,17.29
2018-08-27T23:54:18.175Z,17.23
2018-08-27T23:59:14.604Z,17.29
